Time;durP1;ratioP1;P1;durP2;ratioP2;P2;SDS_P1;SDS_P2;PMS_P1;PMS_P2;Temp;Humidity;BMP_temperature;BMP_pressure;BME280_temperature;BME280_humidity;BME280_pressure;Samples;Min_cycle;Max_cycle;Signal;HPM_P1;HPM_P2
2022/12/08 00:02:08;;;;;;;1.73;1.63;;;;;;;5.66;100.00;99858.16;5017946;28;20517;-52
2022/12/08 00:09:20;;;;;;;3.97;3.73;;;;;;;5.69;100.00;99858.09;5021105;28;20448;-52
2022/12/08 00:10:07;;;;;;;1.33;1.23;;;;;;;5.60;100.00;99848.56;5024927;28;20514;-52
2022/12/08 00:12:53;;;;;;;2.13;1.90;;;;;;;5.64;100.00;99845.00;5022868;28;20456;-53
2022/12/08 00:15:20;;;;;;;3.43;2.87;;;;;;;5.68;100.00;99845.81;5017598;28;20455;-52
2022/12/08 00:17:46;;;;;;;1.80;1.00;;;;;;;5.71;100.00;99836.97;5031572;28;20452;-52
2022/12/08 00:20:12;;;;;;;4.27;3.13;;;;;;;5.98;100.00;99836.56;5017412;28;21008;-53
2022/12/08 00:22:39;;;;;;;4.73;2.13;;;;;;;5.94;100.00;99829.59;5019082;28;20453;-53
2022/12/08 00:25:06;;;;;;;8.60;3.13;;;;;;;5.81;100.00;99833.31;5024320;28;20964;-52
2022/12/08 00:27:32;;;;;;;2.73;0.90;;;;;;;5.80;100.00;99829.81;5022440;28;20501;-52
2022/12/08 00:29:58;;;;;;;5.83;2.00;;;;;;;5.73;100.00;99822.88;5017446;28;20458;-52
2022/12/08 00:32:25;;;;;;;3.80;2.77;;;;;;;5.92;100.00;99828.75;5019201;28;20460;-52
2022/12/08 00:34:51;;;;;;;3.23;1.87;;;;;;;5.78;100.00;99818.41;5024228;28;20452;-52
2022/12/08 00:37:18;;;;;;;2.70;2.50;;;;;;;5.83;100.00;99816.56;5022586;28;20455;-53
2022/12/08 00:39:44;;;;;;;2.00;1.70;;;;;;;5.90;100.00;99810.34;5019885;28;20490;-52
2022/12/08 00:42:10;;;;;;;3.40;2.97;;;;;;;5.90;100.00;99809.47;5030613;28;20513;-52
2022/12/08 00:44:38;;;;;;;8.00;2.70;;;;;;;5.78;100.00;99807.00;5017362;28;20452;-53
2022/12/08 00:47:04;;;;;;;1.73;1.17;;;;;;;5.72;100.00;99815.00;5027748;28;20455;-52
2022/12/08 00:49:31;;;;;;;2.27;2.17;;;;;;;5.85;100.00;99803.34;5016839;28;21042;-53
2022/12/08 00:51:57;;;;;;;1.93;1.43;;;;;;;5.89;100.00;99807.66;5017596;28;20463;-51
2022/12/08 00:54:24;;;;;;;1.10;1.00;;;;;;;5.85;100.00;99806.84;5023990;28;20541;-52
2022/12/08 00:56:51;;;;;;;2.10;2.00;;;;;;;5.66;100.00;99805.44;5023457;28;20455;-52
2022/12/08 00:59:17;;;;;;;4.37;2.30;;;;;;;5.77;100.00;99802.63;5016733;28;20475;-52
2022/12/08 01:01:45;;;;;;;2.13;1.70;;;;;;;5.77;100.00;99800.84;5016738;28;20463;-52
2022/12/08 01:04:14;;;;;;;4.83;2.77;;;;;;;5.68;100.00;99797.50;5023633;28;20843;-53
2022/12/08 01:06:41;;;;;;;2.53;2.03;;;;;;;5.66;100.00;99802.78;5023811;28;20451;-52
2022/12/08 01:09:09;;;;;;;7.80;1.87;;;;;;;5.60;100.00;99805.50;5017631;28;20472;-52
2022/12/08 01:11:36;;;;;;;2.00;1.90;;;;;;;5.53;100.00;99801.25;5028831;28;20510;-52
2022/12/08 01:14:02;;;;;;;3.50;2.63;;;;;;;5.71;100.00;99795.66;5017745;28;20952;-52
2022/12/08 01:16:32;;;;;;;2.90;2.70;;;;;;;5.73;100.00;99799.16;5020490;28;20872;-53
2022/12/08 01:18:59;;;;;;;5.57;2.67;;;;;;;5.73;100.00;99796.50;5021091;28;20483;-52
2022/12/08 01:21:27;;;;;;;1.73;1.37;;;;;;;5.60;100.00;99795.84;5023128;28;20889;-52
2022/12/08 01:23:53;;;;;;;8.70;2.10;;;;;;;5.89;100.00;99790.09;5019259;28;20451;-52
2022/12/08 01:26:20;;;;;;;1.90;1.80;;;;;;;5.94;100.00;99796.19;5016498;28;20455;-52
2022/12/08 01:28:47;;;;;;;2.17;1.97;;;;;;;5.93;100.00;99793.56;5019793;28;20892;-52
2022/12/08 01:31:20;;;;;;;9.60;3.53;;;;;;;5.99;100.00;99790.81;5023215;28;20479;-52
2022/12/08 01:33:48;;;;;;;2.33;2.10;;;;;;;6.01;100.00;99790.78;5019885;28;20543;-52
2022/12/08 01:36:17;;;;;;;8.20;3.47;;;;;;;5.67;100.00;99793.13;5016029;28;20949;-52
2022/12/08 01:38:44;;;;;;;1.87;1.47;;;;;;;5.68;100.00;99794.84;5017958;28;20480;-52
2022/12/08 01:41:15;;;;;;;3.60;1.03;;;;;;;5.90;100.00;99788.38;5028835;28;20843;-52
2022/12/08 01:43:54;;;;;;;4.13;2.20;;;;;;;5.65;100.00;99785.25;5018043;28;20448;-52
2022/12/08 01:46:21;;;;;;;1.97;1.80;;;;;;;5.69;100.00;99786.91;5016409;28;20505;-52
2022/12/08 01:48:50;;;;;;;2.00;1.90;;;;;;;5.74;100.00;99794.75;5015694;28;20508;-52
2022/12/08 01:51:17;;;;;;;1.67;1.57;;;;;;;5.62;100.00;99785.28;5022273;28;20453;-52
2022/12/08 01:53:44;;;;;;;6.33;3.83;;;;;;;5.56;100.00;99783.63;5022571;28;20458;-52
2022/12/08 01:56:17;;;;;;;4.10;2.47;;;;;;;5.59;100.00;99780.91;5017031;28;20538;-52
2022/12/08 01:58:48;;;;;;;3.20;2.67;;;;;;;5.58;100.00;99775.69;5015723;28;20468;-52
2022/12/08 02:01:15;;;;;;;2.83;1.93;;;;;;;5.65;100.00;99780.84;5020266;28;20499;-52
2022/12/08 02:03:56;;;;;;;4.77;3.37;;;;;;;5.92;100.00;99771.59;5022296;28;20456;-52
2022/12/08 02:06:23;;;;;;;2.30;2.20;;;;;;;5.62;100.00;99775.63;5020129;28;20447;-52
2022/12/08 02:08:50;;;;;;;8.37;4.50;;;;;;;5.55;100.00;99773.97;5016090;28;20528;-52
2022/12/08 02:11:17;;;;;;;2.03;1.93;;;;;;;5.48;100.00;99774.97;5017952;28;20453;-53
2022/12/08 02:13:45;;;;;;;2.40;2.20;;;;;;;5.49;100.00;99771.44;5022394;28;20514;-52
2022/12/08 02:16:51;;;;;;;5.60;2.20;;;;;;;5.53;100.00;99769.63;5021259;28;20526;-53
2022/12/08 02:19:48;;;;;;;6.97;2.40;;;;;;;5.48;100.00;99766.16;5009261;28;20534;-52
2022/12/08 02:22:34;;;;;;;7.13;2.70;;;;;;;5.43;100.00;99765.38;5017187;28;20933;-52
2022/12/08 02:25:39;;;;;;;3.20;3.00;;;;;;;5.41;100.00;99759.28;5015499;28;20444;-52
2022/12/08 02:28:22;;;;;;;2.17;2.00;;;;;;;5.49;100.00;99760.91;4929028;29;21087;-52
2022/12/08 02:30:54;;;;;;;2.60;2.50;;;;;;;5.59;100.00;99764.22;5015992;28;20986;-52
2022/12/08 02:33:58;;;;;;;3.27;1.67;;;;;;;5.51;100.00;99761.75;5015371;28;20510;-52
2022/12/08 02:36:34;;;;;;;5.70;1.93;;;;;;;5.57;100.00;99755.47;5015525;28;20458;-53
2022/12/08 02:39:10;;;;;;;1.37;1.27;;;;;;;5.50;100.00;99753.88;5018664;28;21050;-52
2022/12/08 02:41:51;;;;;;;11.87;3.83;;;;;;;5.54;100.00;99761.69;5016338;28;20498;-52
2022/12/08 02:44:34;;;;;;;4.43;2.57;;;;;;;5.45;100.00;99753.91;5015708;28;20447;-53
2022/12/08 02:47:14;;;;;;;4.70;2.07;;;;;;;5.43;100.00;99750.44;5030656;28;20463;-53
2022/12/08 02:49:40;;;;;;;4.10;3.57;;;;;;;5.44;100.00;99746.03;5019974;28;20467;-54
2022/12/08 02:52:28;;;;;;;2.77;1.77;;;;;;;5.63;100.00;99748.34;5019232;28;20463;-52
2022/12/08 02:54:56;;;;;;;5.13;2.30;;;;;;;5.69;100.00;99738.59;5021802;28;20506;-52
2022/12/08 02:57:34;;;;;;;1.30;1.30;;;;;;;5.58;100.00;99734.38;5025841;28;20460;-53
2022/12/08 03:00:07;;;;;;;3.50;3.17;;;;;;;5.58;100.00;99729.09;5025177;28;20486;-52
2022/12/08 03:02:43;;;;;;;2.63;2.53;;;;;;;5.69;100.00;99726.28;5025147;28;20534;-52
2022/12/08 03:05:20;;;;;;;3.00;2.13;;;;;;;5.59;100.00;99719.41;5025845;28;20583;-53
2022/12/08 03:08:15;;;;;;;2.20;1.67;;;;;;;5.50;100.00;99724.88;5022912;28;20458;-53
2022/12/08 03:10:54;;;;;;;2.03;1.93;;;;;;;5.67;100.00;99728.06;5024983;28;20518;-53
2022/12/08 03:13:28;;;;;;;3.10;1.43;;;;;;;5.55;100.00;99723.88;5025906;28;20456;-51
2022/12/08 03:15:55;;;;;;;3.80;2.43;;;;;;;5.46;100.00;99723.16;5022445;28;20456;-51
2022/12/08 03:18:26;;;;;;;2.80;2.57;;;;;;;5.50;100.00;99722.25;5028655;28;20551;-51
2022/12/08 03:20:53;;;;;;;1.33;1.33;;;;;;;5.47;100.00;99722.25;5022959;28;20561;-53
2022/12/08 03:23:21;;;;;;;2.93;2.73;;;;;;;5.48;100.00;99714.34;5018490;28;21006;-53
2022/12/08 03:25:55;;;;;;;3.13;2.07;;;;;;;5.45;100.00;99713.50;5021315;28;20463;-53
2022/12/08 03:28:22;;;;;;;2.73;1.50;;;;;;;5.50;100.00;99717.84;5025629;28;20479;-54
2022/12/08 03:30:54;;;;;;;1.47;1.37;;;;;;;5.50;100.00;99722.25;5024263;28;20455;-52
2022/12/08 03:33:31;;;;;;;2.83;2.67;;;;;;;5.44;100.00;99704.75;5018473;28;20455;-53
2022/12/08 03:36:00;;;;;;;2.67;2.57;;;;;;;5.41;100.00;99701.28;5018663;28;20456;-53
2022/12/08 03:38:42;;;;;;;2.20;2.00;;;;;;;5.42;100.00;99698.63;5023563;28;20488;-53
2022/12/08 03:41:19;;;;;;;4.70;1.90;;;;;;;5.45;100.00;99695.06;5031578;28;20548;-52
2022/12/08 03:43:50;;;;;;;2.20;2.00;;;;;;;5.50;100.00;99686.19;5019611;28;20444;-53
2022/12/08 03:46:19;;;;;;;2.37;1.37;;;;;;;5.51;100.00;99681.81;5028932;28;20538;-53
2022/12/08 03:48:45;;;;;;;1.43;1.43;;;;;;;5.57;100.00;99682.53;5018305;28;20468;-53
2022/12/08 03:51:12;;;;;;;4.20;3.23;;;;;;;5.46;100.00;99681.84;5018309;28;20456;-53
2022/12/08 03:53:39;;;;;;;2.33;2.23;;;;;;;5.41;100.00;99685.47;5018106;28;20457;-53
2022/12/08 03:56:13;;;;;;;1.70;1.60;;;;;;;5.36;100.00;99682.94;5024287;28;20452;-52
2022/12/08 03:58:40;;;;;;;1.97;1.40;;;;;;;5.39;100.00;99682.88;5024370;28;20466;-53
2022/12/08 04:01:06;;;;;;;1.20;0.87;;;;;;;5.27;100.00;99680.44;5019359;28;21004;-53
2022/12/08 04:03:33;;;;;;;3.60;3.30;;;;;;;5.37;100.00;99684.69;5018046;28;20460;-52
2022/12/08 04:05:59;;;;;;;0.80;0.80;;;;;;;5.27;100.00;99680.44;5023136;28;20548;-52
2022/12/08 04:08:26;;;;;;;1.63;1.13;;;;;;;5.18;100.00;99678.81;5024527;28;20471;-53
2022/12/08 04:10:52;;;;;;;16.30;2.40;;;;;;;5.06;100.00;99673.75;5019924;28;20531;-53
2022/12/08 04:13:19;;;;;;;2.23;2.10;;;;;;;5.01;100.00;99668.56;5017614;28;20452;-53
2022/12/08 04:15:46;;;;;;;1.80;1.70;;;;;;;5.01;100.00;99665.06;5022938;28;20536;-53
2022/12/08 04:18:13;;;;;;;2.50;2.40;;;;;;;4.92;100.00;99670.47;5028966;28;20587;-53
2022/12/08 04:20:41;;;;;;;2.33;2.20;;;;;;;4.95;100.00;99655.53;5020100;28;20495;-53
2022/12/08 04:23:08;;;;;;;4.73;1.23;;;;;;;4.90;100.00;99664.38;5017708;28;20460;-53
2022/12/08 04:25:37;;;;;;;1.43;1.33;;;;;;;4.84;100.00;99665.34;5021086;28;20456;-53
2022/12/08 04:28:04;;;;;;;1.77;1.67;;;;;;;4.76;100.00;99664.59;5023861;28;20530;-53
2022/12/08 04:30:31;;;;;;;1.93;1.43;;;;;;;4.76;100.00;99664.59;5020890;28;20463;-53
2022/12/08 04:32:58;;;;;;;1.77;1.57;;;;;;;4.68;100.00;99667.34;5017440;28;20864;-53
2022/12/08 04:35:24;;;;;;;2.40;0.80;;;;;;;4.65;100.00;99666.50;5020173;28;20456;-53
2022/12/08 04:37:51;;;;;;;2.63;1.70;;;;;;;4.68;100.00;99663.84;5023948;28;20476;-53
2022/12/08 04:40:17;;;;;;;4.00;2.40;;;;;;;5.24;100.00;99657.66;5022724;28;20934;-53
2022/12/08 04:42:44;;;;;;;1.93;1.80;;;;;;;4.88;100.00;99659.13;5027098;28;20529;-53
2022/12/08 04:45:10;;;;;;;2.03;1.93;;;;;;;4.71;100.00;99659.41;5021147;28;20459;-53
2022/12/08 04:47:37;;;;;;;1.73;1.60;;;;;;;4.65;100.00;99661.25;5024575;28;20950;-54
2022/12/08 04:50:04;;;;;;;4.10;1.70;;;;;;;4.49;100.00;99659.72;5020725;28;20452;-53
2022/12/08 04:52:31;;;;;;;6.40;1.23;;;;;;;4.51;100.00;99660.56;5017170;28;20571;-53
2022/12/08 04:54:58;;;;;;;1.30;1.20;;;;;;;4.30;100.00;99659.13;5019873;28;20453;-53
2022/12/08 04:57:24;;;;;;;1.90;1.70;;;;;;;4.32;100.00;99665.22;5014436;28;20821;-53
2022/12/08 04:59:52;;;;;;;0.83;0.83;;;;;;;4.30;100.00;99660.00;5019820;28;20473;-53
2022/12/08 05:02:18;;;;;;;3.93;0.83;;;;;;;4.24;100.00;99660.06;5023617;28;20492;-50
2022/12/08 05:04:45;;;;;;;2.70;1.87;;;;;;;4.13;100.00;99654.97;5021107;28;20452;-51
2022/12/08 05:07:11;;;;;;;3.10;2.90;;;;;;;4.28;100.00;99659.16;5016849;28;20452;-51
2022/12/08 05:09:38;;;;;;;0.50;0.43;;;;;;;4.34;100.00;99658.19;5019108;28;20472;-51
2022/12/08 05:12:04;;;;;;;3.17;1.93;;;;;;;4.19;100.00;99654.00;5023518;28;20445;-51
2022/12/08 05:14:30;;;;;;;1.13;1.13;;;;;;;4.19;100.00;99650.50;5020854;28;20451;-50
2022/12/08 05:16:57;;;;;;;3.40;1.17;;;;;;;4.36;100.00;99659.03;5021961;28;20522;-53
2022/12/08 05:19:23;;;;;;;1.50;1.40;;;;;;;4.34;100.00;99651.16;5019217;28;20472;-53
2022/12/08 05:21:51;;;;;;;3.27;1.03;;;;;;;4.45;100.00;99653.66;5022796;28;20527;-53
2022/12/08 05:24:17;;;;;;;1.80;1.40;;;;;;;4.51;100.00;99644.78;5021014;28;20452;-53
2022/12/08 05:26:44;;;;;;;4.17;3.97;;;;;;;4.49;100.00;99641.31;5016300;28;20455;-53
2022/12/08 05:29:10;;;;;;;2.40;1.43;;;;;;;4.49;100.00;99639.53;5018522;28;20476;-53
2022/12/08 05:31:37;;;;;;;2.60;0.90;;;;;;;4.74;100.00;99632.16;5023046;28;21009;-53
2022/12/08 05:34:03;;;;;;;1.03;1.03;;;;;;;5.25;100.00;99638.31;5021453;28;20479;-53
2022/12/08 05:36:29;;;;;;;3.37;1.53;;;;;;;4.77;100.00;99632.09;5016110;28;20452;-53
2022/12/08 05:38:57;;;;;;;1.30;1.20;;;;;;;4.66;100.00;99634.03;5019351;28;20493;-53
2022/12/08 05:41:24;;;;;;;2.20;2.10;;;;;;;4.59;100.00;99635.03;5029411;28;20491;-53
2022/12/08 05:43:50;;;;;;;0.70;0.70;;;;;;;4.56;100.00;99628.06;5017053;28;20460;-53
2022/12/08 05:46:17;;;;;;;2.43;2.33;;;;;;;4.54;100.00;99639.50;5026526;28;20848;-53
2022/12/08 05:48:44;;;;;;;1.60;1.50;;;;;;;4.56;100.00;99632.44;5016548;28;20487;-53
2022/12/08 05:51:19;;;;;;;1.50;0.90;;;;;;;4.60;100.00;99627.09;5022572;28;20460;-53
2022/12/08 05:53:46;;;;;;;1.40;1.30;;;;;;;4.60;100.00;99624.47;5022987;28;20455;-54
2022/12/08 05:56:14;;;;;;;4.60;1.40;;;;;;;4.60;100.00;99629.72;5017388;28;20455;-54
2022/12/08 05:58:40;;;;;;;5.17;2.60;;;;;;;4.66;100.00;99623.50;5015818;28;20514;-54
2022/12/08 06:01:07;;;;;;;4.93;2.40;;;;;;;4.74;100.00;99627.75;5021625;28;21075;-53
2022/12/08 06:03:33;;;;;;;1.80;1.70;;;;;;;4.73;100.00;99622.53;5022692;28;20452;-54
2022/12/08 06:06:00;;;;;;;2.53;2.10;;;;;;;4.78;100.00;99631.19;5016552;28;20459;-54
2022/12/08 06:08:26;;;;;;;3.53;2.97;;;;;;;4.84;100.00;99623.22;5015517;28;20476;-53
2022/12/08 06:10:53;;;;;;;2.30;2.20;;;;;;;4.85;100.00;99626.72;5022305;28;20449;-53
2022/12/08 06:13:19;;;;;;;3.20;2.13;;;;;;;4.88;100.00;99622.28;5024171;28;20452;-52
2022/12/08 06:15:45;;;;;;;9.73;1.50;;;;;;;4.92;100.00;99615.19;5016828;28;21022;-53
2022/12/08 06:18:12;;;;;;;1.70;1.60;;;;;;;4.99;100.00;99620.34;5027660;28;20527;-54
2022/12/08 06:20:38;;;;;;;6.13;3.47;;;;;;;4.96;100.00;99630.94;5016188;28;20458;-53
2022/12/08 06:23:05;;;;;;;2.90;2.00;;;;;;;4.96;100.00;99638.81;5027770;28;20466;-53
2022/12/08 06:25:31;;;;;;;2.00;1.90;;;;;;;4.90;100.00;99633.66;5017165;28;20456;-53
2022/12/08 06:27:58;;;;;;;1.57;1.50;;;;;;;4.87;100.00;99630.19;5015477;28;20477;-53
2022/12/08 06:30:24;;;;;;;2.73;2.53;;;;;;;4.88;100.00;99635.44;5021032;28;20452;-51
2022/12/08 06:32:51;;;;;;;3.77;2.43;;;;;;;4.86;100.00;99631.09;5022413;28;20462;-52
2022/12/08 06:35:17;;;;;;;2.40;2.07;;;;;;;4.85;100.00;99643.38;5017267;28;20455;-51
2022/12/08 06:37:44;;;;;;;1.90;1.80;;;;;;;4.88;100.00;99634.56;5015396;28;20519;-52
2022/12/08 06:40:10;;;;;;;1.90;1.80;;;;;;;4.82;100.00;99635.56;5037999;28;20840;-52
2022/12/08 06:42:43;;;;;;;1.13;1.00;;;;;;;4.86;100.00;99637.22;5029994;28;20969;-52
2022/12/08 06:45:11;;;;;;;3.10;1.77;;;;;;;4.89;100.00;99631.03;5018982;28;20448;-52
2022/12/08 06:47:38;;;;;;;1.33;1.23;;;;;;;4.83;100.00;99634.66;5022848;28;20483;-52
2022/12/08 06:50:06;;;;;;;0.70;0.70;;;;;;;4.83;100.00;99629.38;5019392;28;20447;-51
2022/12/08 06:52:33;;;;;;;5.10;1.77;;;;;;;4.83;100.00;99636.41;5015893;28;20444;-53
2022/12/08 06:55:07;;;;;;;1.90;1.27;;;;;;;4.80;100.00;99632.06;5017072;28;20893;-52
2022/12/08 06:57:33;;;;;;;4.23;1.97;;;;;;;4.76;100.00;99628.59;5021916;28;20461;-52
2022/12/08 07:00:00;;;;;;;1.23;1.23;;;;;;;4.78;100.00;99639.09;5020613;28;20505;-51
2022/12/08 07:02:26;;;;;;;3.90;3.43;;;;;;;4.76;100.00;99633.88;5015349;28;20495;-51
2022/12/08 07:04:53;;;;;;;1.47;1.37;;;;;;;4.77;100.00;99634.72;5016299;28;20452;-52
2022/12/08 07:07:20;;;;;;;0.90;0.90;;;;;;;4.73;100.00;99633.06;5022110;28;21129;-52
2022/12/08 07:09:46;;;;;;;2.20;2.10;;;;;;;4.78;100.00;99635.59;5021113;28;21074;-52
2022/12/08 07:12:12;;;;;;;1.70;1.60;;;;;;;4.96;100.00;99630.94;5015165;28;20451;-51
2022/12/08 07:14:39;;;;;;;1.50;1.40;;;;;;;4.90;100.00;99625.75;5016058;28;20503;-53
2022/12/08 07:17:05;;;;;;;1.53;1.43;;;;;;;4.86;100.00;99634.59;5027568;28;20458;-53
2022/12/08 07:19:32;;;;;;;1.53;1.00;;;;;;;4.85;100.00;99632.84;5015949;28;20477;-52
2022/12/08 07:21:58;;;;;;;1.03;0.93;;;;;;;4.83;100.00;99631.16;5021796;28;20946;-52
2022/12/08 07:24:25;;;;;;;1.73;1.63;;;;;;;4.84;100.00;99639.03;5020903;28;20451;-51
2022/12/08 07:26:51;;;;;;;1.83;1.23;;;;;;;4.82;100.00;99635.56;4997407;28;21001;-51
2022/12/08 07:29:17;;;;;;;3.10;2.93;;;;;;;4.86;100.00;99639.00;5016056;28;20499;-52
2022/12/08 07:31:51;;;;;;;8.20;2.50;;;;;;;4.86;100.00;99636.34;5015826;28;20486;-52
2022/12/08 07:34:17;;;;;;;2.60;2.10;;;;;;;4.85;100.00;99635.50;5018752;28;20484;-52
2022/12/08 07:36:44;;;;;;;4.13;1.40;;;;;;;4.94;100.00;99637.13;5018696;28;20509;-52
2022/12/08 07:39:10;;;;;;;1.73;1.63;;;;;;;4.94;100.00;99637.13;5021441;28;20537;-51
2022/12/08 07:41:36;;;;;;;4.13;1.53;;;;;;;4.92;100.00;99634.47;5031424;28;20498;-51
2022/12/08 07:44:03;;;;;;;1.40;1.30;;;;;;;4.87;100.00;99627.56;5018307;28;20457;-52
2022/12/08 07:46:29;;;;;;;1.00;1.00;;;;;;;4.84;100.00;99630.25;5029295;28;20807;-51
2022/12/08 07:48:56;;;;;;;4.40;3.20;;;;;;;4.84;100.00;99633.75;5018577;28;20478;-52
2022/12/08 07:51:24;;;;;;;10.47;2.00;;;;;;;4.89;100.00;99633.66;5023495;28;20493;-52
2022/12/08 07:53:51;;;;;;;1.80;1.50;;;;;;;4.88;100.00;99632.81;5025078;28;20466;-52
2022/12/08 07:56:20;;;;;;;1.57;1.37;;;;;;;4.92;100.00;99630.97;5020480;28;20969;-51
2022/12/08 07:58:47;;;;;;;2.63;2.47;;;;;;;4.91;100.00;99627.47;5018565;28;20480;-51
2022/12/08 08:01:20;;;;;;;3.20;2.20;;;;;;;4.94;100.00;99627.47;5022399;28;20457;-52
2022/12/08 08:03:47;;;;;;;2.03;1.40;;;;;;;4.94;100.00;99632.72;5024717;28;20464;-53
2022/12/08 08:06:13;;;;;;;0.40;0.40;;;;;;;4.92;100.00;99628.34;5022018;28;20451;-52
2022/12/08 08:08:40;;;;;;;1.17;1.13;;;;;;;4.95;100.00;99629.19;5017392;28;20471;-52
2022/12/08 08:11:07;;;;;;;2.33;2.10;;;;;;;4.93;100.00;99619.56;5020854;28;20456;-52
2022/12/08 08:13:44;;;;;;;0.50;0.50;;;;;;;5.05;100.00;99620.22;5024547;28;20455;-52
2022/12/08 08:16:14;;;;;;;2.77;1.03;;;;;;;5.10;100.00;99627.19;5023942;28;20945;-51
2022/12/08 08:18:40;;;;;;;0.70;0.70;;;;;;;5.13;100.00;99627.13;5018295;28;20479;-51
2022/12/08 08:21:07;;;;;;;2.00;1.90;;;;;;;5.14;100.00;99626.22;5017481;28;20487;-52
2022/12/08 08:23:53;;;;;;;1.50;1.13;;;;;;;5.26;100.00;99628.66;5021425;28;20838;-52
2022/12/08 08:26:20;;;;;;;0.63;0.63;;;;;;;5.22;100.00;99633.13;5024120;28;20855;-51
2022/12/08 08:28:47;;;;;;;2.27;0.97;;;;;;;5.26;100.00;99629.53;5021058;28;20528;-52
2022/12/08 08:31:13;;;;;;;0.70;0.70;;;;;;;5.20;100.00;99624.34;5017430;28;20535;-51
2022/12/08 08:33:40;;;;;;;3.90;0.87;;;;;;;5.24;100.00;99623.41;5021011;28;20938;-52
2022/12/08 08:36:08;;;;;;;1.20;1.07;;;;;;;5.16;100.00;99630.56;5023847;28;20453;-52
2022/12/08 08:38:38;;;;;;;4.13;1.47;;;;;;;5.28;100.00;99634.75;5022092;28;20495;-50
2022/12/08 08:41:10;;;;;;;2.07;1.97;;;;;;;5.28;100.00;99632.13;5043942;28;20447;-50
2022/12/08 08:43:37;;;;;;;1.90;1.80;;;;;;;5.32;100.00;99631.16;5002398;28;20462;-51
2022/12/08 08:46:05;;;;;;;1.00;0.90;;;;;;;5.35;100.00;99633.78;5009432;28;20456;-51
2022/12/08 08:48:32;;;;;;;2.77;1.77;;;;;;;5.38;100.00;99627.56;5019463;28;21010;-52
2022/12/08 08:51:06;;;;;;;1.07;0.97;;;;;;;5.49;100.00;99629.13;5023733;28;20460;-51
2022/12/08 08:53:33;;;;;;;0.97;0.97;;;;;;;5.52;100.00;99630.81;5023047;28;20502;-53
2022/12/08 08:55:59;;;;;;;3.67;1.77;;;;;;;5.48;100.00;99630.03;5017147;28;20984;-50
2022/12/08 08:58:28;;;;;;;1.37;0.87;;;;;;;5.49;100.00;99630.88;5017221;28;20504;-50
2022/12/08 09:00:55;;;;;;;0.90;0.90;;;;;;;5.38;100.00;99632.84;5016989;28;20464;-51
2022/12/08 09:03:21;;;;;;;1.77;1.17;;;;;;;5.38;100.00;99630.22;5017139;28;20579;-51
2022/12/08 09:05:49;;;;;;;1.10;1.00;;;;;;;5.52;100.00;99631.69;5023016;28;20453;-50
2022/12/08 09:08:15;;;;;;;1.00;1.00;;;;;;;5.55;100.00;99621.09;5023584;28;20475;-50
2022/12/08 09:10:42;;;;;;;1.50;1.10;;;;;;;5.67;100.00;99621.75;5000279;28;20487;-50
2022/12/08 09:13:08;;;;;;;2.10;2.00;;;;;;;5.70;100.00;99626.97;5016747;28;20459;-52
2022/12/08 09:15:34;;;;;;;1.17;1.07;;;;;;;5.63;100.00;99623.59;5022925;28;20456;-50
2022/12/08 09:18:01;;;;;;;3.00;0.73;;;;;;;5.70;100.00;99614.63;5027260;28;20472;-53
2022/12/08 09:20:27;;;;;;;0.70;0.70;;;;;;;5.70;100.00;99617.28;5017609;28;20455;-51
2022/12/08 09:22:54;;;;;;;0.97;0.77;;;;;;;5.75;100.00;99614.53;5016519;28;20496;-51
2022/12/08 09:25:20;;;;;;;0.80;0.80;;;;;;;5.71;100.00;99616.38;5022496;28;20448;-49
2022/12/08 09:27:46;;;;;;;0.50;0.50;;;;;;;5.81;100.00;99614.44;5022858;28;20793;-50
2022/12/08 09:30:13;;;;;;;0.80;0.80;;;;;;;5.80;100.00;99616.19;5017892;28;20458;-51
2022/12/08 09:32:39;;;;;;;1.50;0.83;;;;;;;5.87;100.00;99612.53;5016269;28;20900;-50
2022/12/08 09:35:06;;;;;;;0.40;0.40;;;;;;;5.89;100.00;99620.41;5021624;28;20456;-52
2022/12/08 09:37:33;;;;;;;0.93;0.63;;;;;;;5.82;100.00;99618.81;5023452;28;20459;-52
2022/12/08 09:40:00;;;;;;;1.73;0.87;;;;;;;5.95;100.00;99617.69;5019509;28;20455;-53
2022/12/08 09:42:37;;;;;;;1.27;0.97;;;;;;;5.98;100.00;99612.34;5027947;28;20919;-51
2022/12/08 09:45:10;;;;;;;1.23;0.80;;;;;;;5.99;99.74;99606.16;5019230;28;20455;-52
2022/12/08 09:47:46;;;;;;;0.73;0.73;;;;;;;6.03;100.00;99613.13;5023043;28;21007;-51
2022/12/08 09:50:35;;;;;;;2.57;1.30;;;;;;;6.12;99.73;99612.06;5021554;28;20454;-50
2022/12/08 09:53:40;;;;;;;7.43;0.40;;;;;;;6.21;98.87;99609.22;5003354;28;20499;-50
2022/12/08 09:56:21;;;;;;;0.60;0.60;;;;;;;6.17;99.08;99604.94;5014622;28;20470;-50
2022/12/08 09:59:20;;;;;;;0.80;0.80;;;;;;;6.26;98.85;99609.13;5016156;28;20475;-53
2022/12/08 10:01:47;;;;;;;1.47;1.47;;;;;;;6.21;98.38;99599.53;5015964;28;20453;-51
2022/12/08 10:04:23;;;;;;;1.60;1.07;;;;;;;6.37;97.68;99596.56;5022553;28;20514;-53
2022/12/08 10:06:59;;;;;;;0.60;0.60;;;;;;;6.48;98.07;99594.53;5022538;28;20455;-51
2022/12/08 10:09:37;;;;;;;4.97;2.17;;;;;;;6.36;97.44;99586.91;5018697;28;20474;-50
2022/12/08 10:12:28;;;;;;;0.90;0.90;;;;;;;6.45;97.41;99586.69;5015899;28;20451;-49
2022/12/08 10:15:07;;;;;;;0.43;0.40;;;;;;;6.83;95.77;99588.41;5015897;28;20498;-50
2022/12/08 10:17:48;;;;;;;0.70;0.70;;;;;;;6.53;95.26;99585.59;5028978;28;20951;-49
2022/12/08 10:20:23;;;;;;;0.50;0.50;;;;;;;6.56;95.62;99584.66;5015525;28;20458;-50
2022/12/08 10:23:17;;;;;;;0.70;0.20;;;;;;;6.72;94.98;99582.53;5015878;28;20507;-52
2022/12/08 10:25:46;;;;;;;0.60;0.60;;;;;;;6.82;94.23;99574.31;5019365;28;20456;-50
2022/12/08 10:28:13;;;;;;;0.77;0.77;;;;;;;6.68;94.59;99579.06;5015814;28;20529;-53
2022/12/08 10:30:40;;;;;;;1.17;1.03;;;;;;;7.04;94.42;99573.78;5018461;28;20456;-52
2022/12/08 10:33:16;;;;;;;0.67;0.67;;;;;;;6.87;94.87;99565.44;5022564;28;20453;-52
2022/12/08 10:35:55;;;;;;;0.40;0.30;;;;;;;7.05;93.04;99560.53;5020938;28;20971;-52
2022/12/08 10:38:27;;;;;;;1.00;0.43;;;;;;;6.92;92.95;99559.13;5021616;28;20484;-50
2022/12/08 10:41:03;;;;;;;1.10;1.00;;;;;;;6.97;93.66;99559.00;5039537;28;20568;-50
2022/12/08 10:43:30;;;;;;;0.40;0.40;;;;;;;6.84;92.03;99566.34;5019302;28;20492;-52
2022/12/08 10:46:14;;;;;;;1.93;1.47;;;;;;;6.76;93.28;99556.00;5023260;28;20456;-50
2022/12/08 10:48:50;;;;;;;1.03;1.03;;;;;;;6.91;92.55;99560.03;5016767;28;20563;-53
2022/12/08 10:51:38;;;;;;;14.10;0.60;;;;;;;7.08;90.69;99552.53;5022137;28;20460;-50
2022/12/08 10:54:23;;;;;;;0.40;0.33;;;;;;;7.00;90.46;99543.94;5004952;28;20453;-50
2022/12/08 10:56:54;;;;;;;0.70;0.70;;;;;;;6.98;90.75;99543.09;5021228;28;20447;-51
2022/12/08 10:59:20;;;;;;;0.30;0.20;;;;;;;6.94;91.29;99537.94;5015235;28;20467;-50
2022/12/08 11:01:49;;;;;;;1.77;0.90;;;;;;;7.12;92.02;99534.81;5015472;28;20452;-51
2022/12/08 11:04:32;;;;;;;0.40;0.20;;;;;;;7.24;90.41;99545.03;5015761;28;20451;-51
2022/12/08 11:06:59;;;;;;;0.60;0.60;;;;;;;7.35;89.72;99536.81;5017577;28;20457;-51
2022/12/08 11:09:47;;;;;;;0.60;0.40;;;;;;;7.29;87.49;99537.00;5023090;28;20477;-52
2022/12/08 11:12:19;;;;;;;1.20;1.10;;;;;;;7.25;88.05;99535.34;5025698;28;20445;-52
2022/12/08 11:14:54;;;;;;;0.50;0.50;;;;;;;7.30;88.31;99536.09;5025349;28;20447;-51
2022/12/08 11:17:20;;;;;;;2.23;1.07;;;;;;;7.18;87.38;99533.78;5033192;28;20505;-52
2022/12/08 11:20:02;;;;;;;1.37;0.43;;;;;;;7.24;88.17;99534.47;5020599;28;20483;-52
2022/12/08 11:22:32;;;;;;;3.00;0.47;;;;;;;7.52;88.18;99539.00;5022366;28;20492;-51
2022/12/08 11:25:09;;;;;;;0.30;0.20;;;;;;;7.33;88.16;99528.09;5025240;28;20452;-50
2022/12/08 11:27:43;;;;;;;0.93;0.73;;;;;;;7.16;87.30;99523.25;5023833;28;20462;-50
2022/12/08 11:30:29;;;;;;;1.33;1.23;;;;;;;7.43;85.86;99514.56;5018684;28;20509;-52
2022/12/08 11:33:02;;;;;;;3.60;1.13;;;;;;;7.37;87.38;99517.38;5018898;28;20440;-52
2022/12/08 11:35:33;;;;;;;1.90;1.00;;;;;;;7.14;87.47;99511.88;5022304;28;20445;-52
2022/12/08 11:38:22;;;;;;;1.97;1.67;;;;;;;7.03;87.19;99511.28;5025079;28;20862;-50
2022/12/08 11:41:08;;;;;;;0.40;0.40;;;;;;;7.32;87.17;99505.19;5028360;28;21086;-50
2022/12/08 11:43:41;;;;;;;5.60;1.70;;;;;;;7.29;86.27;99500.88;5020458;28;20496;-50
2022/12/08 11:46:20;;;;;;;1.20;1.10;;;;;;;7.33;85.82;99497.22;5027523;28;20540;-51
2022/12/08 11:48:53;;;;;;;0.40;0.30;;;;;;;7.49;84.67;99497.66;5018344;28;20473;-50
2022/12/08 11:51:43;;;;;;;1.00;0.80;;;;;;;7.45;85.35;99496.00;5019276;28;20443;-50
2022/12/08 11:54:28;;;;;;;0.40;0.40;;;;;;;7.33;83.84;99494.59;5018278;28;20447;-51